sensor_id;sensor_type;location;lat;lon;timestamp;P1;durP1;ratioP1;P2;durP2;ratioP2
10096;SDS011;5087;42.662;23.466;2023-06-22T00:02:02;0.00;;;0.00;;
10096;SDS011;5087;42.662;23.466;2023-06-22T00:04:29;0.00;;;0.00;;
10096;SDS011;5087;42.662;23.466;2023-06-22T00:06:57;0.00;;;0.00;;
10096;SDS011;5087;42.662;23.466;2023-06-22T00:09:26;0.00;;;0.00;;
10096;SDS011;5087;42.662;23.466;2023-06-22T00:11:53;0.00;;;0.00;;
10096;SDS011;5087;42.662;23.466;2023-06-22T00:14:20;0.00;;;0.00;;
10096;SDS011;5087;42.662;23.466;2023-06-22T00:16:47;0.27;;;0.27;;
10096;SDS011;5087;42.662;23.466;2023-06-22T00:19:20;0.00;;;0.00;;
10096;SDS011;5087;42.662;23.466;2023-06-22T00:21:47;0.10;;;0.10;;
10096;SDS011;5087;42.662;23.466;2023-06-22T00:24:18;0.30;;;0.10;;
10096;SDS011;5087;42.662;23.466;2023-06-22T00:26:47;0.00;;;0.00;;
10096;SDS011;5087;42.662;23.466;2023-06-22T00:29:15;0.33;;;0.10;;
10096;SDS011;5087;42.662;23.466;2023-06-22T00:31:43;0.00;;;0.00;;
10096;SDS011;5087;42.662;23.466;2023-06-22T00:34:11;0.00;;;0.00;;
10096;SDS011;5087;42.662;23.466;2023-06-22T00:36:38;0.20;;;0.20;;
10096;SDS011;5087;42.662;23.466;2023-06-22T00:39:06;0.00;;;0.00;;
10096;SDS011;5087;42.662;23.466;2023-06-22T00:41:34;0.00;;;0.00;;
10096;SDS011;5087;42.662;23.466;2023-06-22T00:44:05;0.00;;;0.00;;
10096;SDS011;5087;42.662;23.466;2023-06-22T00:46:33;0.00;;;0.00;;
10096;SDS011;5087;42.662;23.466;2023-06-22T00:49:01;0.30;;;0.20;;
10096;SDS011;5087;42.662;23.466;2023-06-22T00:51:30;0.00;;;0.00;;
10096;SDS011;5087;42.662;23.466;2023-06-22T00:54:02;0.00;;;0.00;;
10096;SDS011;5087;42.662;23.466;2023-06-22T00:56:31;0.00;;;0.00;;
10096;SDS011;5087;42.662;23.466;2023-06-22T00:59:01;0.00;;;0.00;;
10096;SDS011;5087;42.662;23.466;2023-06-22T01:01:30;0.00;;;0.00;;
10096;SDS011;5087;42.662;23.466;2023-06-22T01:03:59;0.00;;;0.00;;
10096;SDS011;5087;42.662;23.466;2023-06-22T01:06:28;0.10;;;0.10;;
10096;SDS011;5087;42.662;23.466;2023-06-22T01:09:06;0.00;;;0.00;;
10096;SDS011;5087;42.662;23.466;2023-06-22T01:11:42;0.10;;;0.10;;
10096;SDS011;5087;42.662;23.466;2023-06-22T01:14:15;0.00;;;0.00;;
10096;SDS011;5087;42.662;23.466;2023-06-22T01:16:49;0.00;;;0.00;;
10096;SDS011;5087;42.662;23.466;2023-06-22T01:19:27;0.00;;;0.00;;
10096;SDS011;5087;42.662;23.466;2023-06-22T01:22:07;0.00;;;0.00;;
10096;SDS011;5087;42.662;23.466;2023-06-22T01:24:42;0.00;;;0.00;;
10096;SDS011;5087;42.662;23.466;2023-06-22T01:27:23;0.00;;;0.00;;
10096;SDS011;5087;42.662;23.466;2023-06-22T01:30:02;0.20;;;0.20;;
10096;SDS011;5087;42.662;23.466;2023-06-22T01:32:34;0.00;;;0.00;;
10096;SDS011;5087;42.662;23.466;2023-06-22T01:35:04;0.00;;;0.00;;
10096;SDS011;5087;42.662;23.466;2023-06-22T01:37:34;0.10;;;0.10;;
10096;SDS011;5087;42.662;23.466;2023-06-22T01:40:02;0.00;;;0.00;;
10096;SDS011;5087;42.662;23.466;2023-06-22T01:42:32;0.03;;;0.03;;
10096;SDS011;5087;42.662;23.466;2023-06-22T01:44:59;0.00;;;0.00;;
10096;SDS011;5087;42.662;23.466;2023-06-22T01:47:29;0.00;;;0.00;;
10096;SDS011;5087;42.662;23.466;2023-06-22T01:49:57;0.10;;;0.10;;
10096;SDS011;5087;42.662;23.466;2023-06-22T01:52:24;0.10;;;0.10;;
10096;SDS011;5087;42.662;23.466;2023-06-22T01:54:52;0.00;;;0.00;;
10096;SDS011;5087;42.662;23.466;2023-06-22T01:57:19;0.00;;;0.00;;
10096;SDS011;5087;42.662;23.466;2023-06-22T01:59:48;0.00;;;0.00;;
10096;SDS011;5087;42.662;23.466;2023-06-22T02:02:25;0.00;;;0.00;;
10096;SDS011;5087;42.662;23.466;2023-06-22T02:05:02;0.00;;;0.00;;
10096;SDS011;5087;42.662;23.466;2023-06-22T02:07:34;0.10;;;0.10;;
10096;SDS011;5087;42.662;23.466;2023-06-22T02:10:06;0.37;;;0.13;;
10096;SDS011;5087;42.662;23.466;2023-06-22T02:12:37;0.03;;;0.03;;
10096;SDS011;5087;42.662;23.466;2023-06-22T02:15:06;0.00;;;0.00;;
10096;SDS011;5087;42.662;23.466;2023-06-22T02:17:36;0.00;;;0.00;;
10096;SDS011;5087;42.662;23.466;2023-06-22T02:20:04;0.00;;;0.00;;
10096;SDS011;5087;42.662;23.466;2023-06-22T02:22:35;0.00;;;0.00;;
10096;SDS011;5087;42.662;23.466;2023-06-22T02:25:02;0.00;;;0.00;;
10096;SDS011;5087;42.662;23.466;2023-06-22T02:27:33;0.00;;;0.00;;
10096;SDS011;5087;42.662;23.466;2023-06-22T02:30:00;0.00;;;0.00;;
10096;SDS011;5087;42.662;23.466;2023-06-22T02:32:30;0.00;;;0.00;;
10096;SDS011;5087;42.662;23.466;2023-06-22T02:35:01;0.00;;;0.00;;
10096;SDS011;5087;42.662;23.466;2023-06-22T02:37:30;0.10;;;0.10;;
10096;SDS011;5087;42.662;23.466;2023-06-22T02:39:57;0.00;;;0.00;;
10096;SDS011;5087;42.662;23.466;2023-06-22T02:42:25;0.00;;;0.00;;
10096;SDS011;5087;42.662;23.466;2023-06-22T02:44:55;0.00;;;0.00;;
10096;SDS011;5087;42.662;23.466;2023-06-22T02:47:22;0.00;;;0.00;;
10096;SDS011;5087;42.662;23.466;2023-06-22T02:49:49;0.00;;;0.00;;
10096;SDS011;5087;42.662;23.466;2023-06-22T02:52:19;0.00;;;0.00;;
10096;SDS011;5087;42.662;23.466;2023-06-22T02:54:46;0.10;;;0.10;;
10096;SDS011;5087;42.662;23.466;2023-06-22T02:57:14;0.00;;;0.00;;
10096;SDS011;5087;42.662;23.466;2023-06-22T02:59:43;0.00;;;0.00;;
10096;SDS011;5087;42.662;23.466;2023-06-22T03:02:11;0.00;;;0.00;;
10096;SDS011;5087;42.662;23.466;2023-06-22T03:04:39;0.00;;;0.00;;
10096;SDS011;5087;42.662;23.466;2023-06-22T03:07:07;0.00;;;0.00;;
10096;SDS011;5087;42.662;23.466;2023-06-22T03:09:36;0.00;;;0.00;;
10096;SDS011;5087;42.662;23.466;2023-06-22T03:12:04;0.00;;;0.00;;
10096;SDS011;5087;42.662;23.466;2023-06-22T03:14:48;0.00;;;0.00;;
10096;SDS011;5087;42.662;23.466;2023-06-22T03:17:15;0.30;;;0.13;;
10096;SDS011;5087;42.662;23.466;2023-06-22T03:19:43;0.00;;;0.00;;
10096;SDS011;5087;42.662;23.466;2023-06-22T03:22:10;0.00;;;0.00;;
10096;SDS011;5087;42.662;23.466;2023-06-22T03:24:39;0.10;;;0.10;;
10096;SDS011;5087;42.662;23.466;2023-06-22T03:27:06;0.00;;;0.00;;
10096;SDS011;5087;42.662;23.466;2023-06-22T03:29:34;0.00;;;0.00;;
10096;SDS011;5087;42.662;23.466;2023-06-22T03:32:01;0.50;;;0.20;;
10096;SDS011;5087;42.662;23.466;2023-06-22T03:34:31;0.00;;;0.00;;
10096;SDS011;5087;42.662;23.466;2023-06-22T03:36:59;0.00;;;0.00;;
10096;SDS011;5087;42.662;23.466;2023-06-22T03:39:26;0.00;;;0.00;;
10096;SDS011;5087;42.662;23.466;2023-06-22T03:41:55;0.00;;;0.00;;
10096;SDS011;5087;42.662;23.466;2023-06-22T03:44:23;0.00;;;0.00;;
10096;SDS011;5087;42.662;23.466;2023-06-22T03:46:50;0.00;;;0.00;;
10096;SDS011;5087;42.662;23.466;2023-06-22T03:49:18;3.20;;;1.13;;
10096;SDS011;5087;42.662;23.466;2023-06-22T03:51:45;0.00;;;0.00;;
10096;SDS011;5087;42.662;23.466;2023-06-22T03:54:12;0.00;;;0.00;;
10096;SDS011;5087;42.662;23.466;2023-06-22T03:56:39;0.10;;;0.10;;
10096;SDS011;5087;42.662;23.466;2023-06-22T03:59:08;0.00;;;0.00;;
10096;SDS011;5087;42.662;23.466;2023-06-22T04:01:35;0.00;;;0.00;;
10096;SDS011;5087;42.662;23.466;2023-06-22T04:04:03;0.00;;;0.00;;
10096;SDS011;5087;42.662;23.466;2023-06-22T04:06:31;0.00;;;0.00;;
10096;SDS011;5087;42.662;23.466;2023-06-22T04:08:59;0.10;;;0.10;;
10096;SDS011;5087;42.662;23.466;2023-06-22T04:11:26;0.00;;;0.00;;
10096;SDS011;5087;42.662;23.466;2023-06-22T04:13:53;0.33;;;0.33;;
10096;SDS011;5087;42.662;23.466;2023-06-22T04:16:22;0.20;;;0.20;;
10096;SDS011;5087;42.662;23.466;2023-06-22T04:18:49;0.73;;;0.40;;
10096;SDS011;5087;42.662;23.466;2023-06-22T04:21:16;0.00;;;0.00;;
10096;SDS011;5087;42.662;23.466;2023-06-22T04:23:45;0.20;;;0.20;;
10096;SDS011;5087;42.662;23.466;2023-06-22T04:26:12;0.10;;;0.10;;
10096;SDS011;5087;42.662;23.466;2023-06-22T04:28:40;0.10;;;0.10;;
10096;SDS011;5087;42.662;23.466;2023-06-22T04:31:07;0.20;;;0.20;;
10096;SDS011;5087;42.662;23.466;2023-06-22T04:33:36;0.00;;;0.00;;
10096;SDS011;5087;42.662;23.466;2023-06-22T04:36:06;0.10;;;0.10;;
10096;SDS011;5087;42.662;23.466;2023-06-22T04:38:33;0.00;;;0.00;;
10096;SDS011;5087;42.662;23.466;2023-06-22T04:41:00;0.00;;;0.00;;
10096;SDS011;5087;42.662;23.466;2023-06-22T04:43:28;0.00;;;0.00;;
10096;SDS011;5087;42.662;23.466;2023-06-22T04:45:56;0.00;;;0.00;;
10096;SDS011;5087;42.662;23.466;2023-06-22T04:48:28;0.00;;;0.00;;
10096;SDS011;5087;42.662;23.466;2023-06-22T04:50:59;0.10;;;0.10;;
10096;SDS011;5087;42.662;23.466;2023-06-22T04:53:30;0.30;;;0.30;;
10096;SDS011;5087;42.662;23.466;2023-06-22T04:55:57;0.10;;;0.10;;
10096;SDS011;5087;42.662;23.466;2023-06-22T04:58:25;0.20;;;0.20;;
10096;SDS011;5087;42.662;23.466;2023-06-22T05:00:57;0.30;;;0.30;;
10096;SDS011;5087;42.662;23.466;2023-06-22T05:03:25;0.60;;;0.60;;
10096;SDS011;5087;42.662;23.466;2023-06-22T05:05:55;0.77;;;0.57;;
10096;SDS011;5087;42.662;23.466;2023-06-22T05:08:24;0.10;;;0.10;;
10096;SDS011;5087;42.662;23.466;2023-06-22T05:10:54;0.10;;;0.10;;
10096;SDS011;5087;42.662;23.466;2023-06-22T05:13:21;0.00;;;0.00;;
10096;SDS011;5087;42.662;23.466;2023-06-22T05:15:52;0.10;;;0.10;;
10096;SDS011;5087;42.662;23.466;2023-06-22T05:18:26;0.10;;;0.10;;
10096;SDS011;5087;42.662;23.466;2023-06-22T05:20:54;0.00;;;0.00;;
10096;SDS011;5087;42.662;23.466;2023-06-22T05:23:22;0.00;;;0.00;;
10096;SDS011;5087;42.662;23.466;2023-06-22T05:25:51;0.07;;;0.07;;
10096;SDS011;5087;42.662;23.466;2023-06-22T05:28:19;0.00;;;0.00;;
10096;SDS011;5087;42.662;23.466;2023-06-22T05:30:49;0.03;;;0.03;;
10096;SDS011;5087;42.662;23.466;2023-06-22T05:33:16;0.10;;;0.10;;
10096;SDS011;5087;42.662;23.466;2023-06-22T05:35:44;0.00;;;0.00;;
10096;SDS011;5087;42.662;23.466;2023-06-22T05:38:11;0.10;;;0.10;;
10096;SDS011;5087;42.662;23.466;2023-06-22T05:40:38;0.20;;;0.20;;
10096;SDS011;5087;42.662;23.466;2023-06-22T05:43:13;0.00;;;0.00;;
10096;SDS011;5087;42.662;23.466;2023-06-22T05:45:40;0.00;;;0.00;;
10096;SDS011;5087;42.662;23.466;2023-06-22T05:48:15;0.10;;;0.10;;
10096;SDS011;5087;42.662;23.466;2023-06-22T05:50:42;0.20;;;0.20;;
10096;SDS011;5087;42.662;23.466;2023-06-22T05:53:12;0.30;;;0.30;;
10096;SDS011;5087;42.662;23.466;2023-06-22T05:55:39;0.23;;;0.23;;
10096;SDS011;5087;42.662;23.466;2023-06-22T05:58:07;0.50;;;0.50;;
10096;SDS011;5087;42.662;23.466;2023-06-22T06:00:36;0.30;;;0.30;;
10096;SDS011;5087;42.662;23.466;2023-06-22T06:03:03;0.40;;;0.40;;
10096;SDS011;5087;42.662;23.466;2023-06-22T06:05:31;0.87;;;0.87;;
10096;SDS011;5087;42.662;23.466;2023-06-22T06:07:59;0.30;;;0.30;;
10096;SDS011;5087;42.662;23.466;2023-06-22T06:10:28;0.43;;;0.43;;
10096;SDS011;5087;42.662;23.466;2023-06-22T06:12:56;0.50;;;0.50;;
10096;SDS011;5087;42.662;23.466;2023-06-22T06:15:23;0.50;;;0.50;;
10096;SDS011;5087;42.662;23.466;2023-06-22T06:17:52;0.40;;;0.40;;
10096;SDS011;5087;42.662;23.466;2023-06-22T06:20:22;0.50;;;0.50;;
10096;SDS011;5087;42.662;23.466;2023-06-22T06:22:55;0.53;;;0.50;;
10096;SDS011;5087;42.662;23.466;2023-06-22T06:25:24;0.50;;;0.50;;
10096;SDS011;5087;42.662;23.466;2023-06-22T06:27:52;0.57;;;0.57;;
10096;SDS011;5087;42.662;23.466;2023-06-22T06:30:20;0.93;;;0.70;;
10096;SDS011;5087;42.662;23.466;2023-06-22T06:32:48;0.40;;;0.40;;
10096;SDS011;5087;42.662;23.466;2023-06-22T06:35:18;0.50;;;0.50;;
10096;SDS011;5087;42.662;23.466;2023-06-22T06:37:47;0.60;;;0.60;;
10096;SDS011;5087;42.662;23.466;2023-06-22T06:40:16;1.00;;;1.00;;
10096;SDS011;5087;42.662;23.466;2023-06-22T06:42:45;0.60;;;0.60;;
10096;SDS011;5087;42.662;23.466;2023-06-22T06:45:15;0.60;;;0.60;;
10096;SDS011;5087;42.662;23.466;2023-06-22T06:47:44;0.50;;;0.50;;
10096;SDS011;5087;42.662;23.466;2023-06-22T06:50:11;0.60;;;0.60;;
10096;SDS011;5087;42.662;23.466;2023-06-22T06:52:44;2.00;;;1.00;;
10096;SDS011;5087;42.662;23.466;2023-06-22T06:55:11;0.30;;;0.30;;
10096;SDS011;5087;42.662;23.466;2023-06-22T06:57:39;0.30;;;0.30;;
10096;SDS011;5087;42.662;23.466;2023-06-22T07:00:07;0.30;;;0.30;;
10096;SDS011;5087;42.662;23.466;2023-06-22T07:02:47;0.40;;;0.40;;
10096;SDS011;5087;42.662;23.466;2023-06-22T07:05:18;0.30;;;0.30;;
10096;SDS011;5087;42.662;23.466;2023-06-22T07:07:47;0.57;;;0.57;;
10096;SDS011;5087;42.662;23.466;2023-06-22T07:10:18;0.30;;;0.30;;
10096;SDS011;5087;42.662;23.466;2023-06-22T07:12:46;0.30;;;0.30;;
10096;SDS011;5087;42.662;23.466;2023-06-22T07:15:16;0.50;;;0.50;;
10096;SDS011;5087;42.662;23.466;2023-06-22T07:17:44;0.30;;;0.30;;
10096;SDS011;5087;42.662;23.466;2023-06-22T07:20:11;0.30;;;0.30;;
10096;SDS011;5087;42.662;23.466;2023-06-22T07:22:39;0.30;;;0.30;;
10096;SDS011;5087;42.662;23.466;2023-06-22T07:25:08;0.30;;;0.30;;
10096;SDS011;5087;42.662;23.466;2023-06-22T07:27:36;0.33;;;0.33;;
10096;SDS011;5087;42.662;23.466;2023-06-22T07:30:08;0.40;;;0.40;;
10096;SDS011;5087;42.662;23.466;2023-06-22T07:32:36;0.40;;;0.40;;
10096;SDS011;5087;42.662;23.466;2023-06-22T07:35:07;0.20;;;0.20;;
10096;SDS011;5087;42.662;23.466;2023-06-22T07:38:10;0.20;;;0.20;;
10096;SDS011;5087;42.662;23.466;2023-06-22T07:41:10;0.40;;;0.40;;
10096;SDS011;5087;42.662;23.466;2023-06-22T07:43:49;0.30;;;0.30;;
10096;SDS011;5087;42.662;23.466;2023-06-22T07:46:19;0.33;;;0.33;;
10096;SDS011;5087;42.662;23.466;2023-06-22T07:48:54;0.53;;;0.53;;
10096;SDS011;5087;42.662;23.466;2023-06-22T07:51:33;0.50;;;0.50;;
10096;SDS011;5087;42.662;23.466;2023-06-22T07:54:25;0.20;;;0.20;;
10096;SDS011;5087;42.662;23.466;2023-06-22T07:56:56;0.30;;;0.30;;
10096;SDS011;5087;42.662;23.466;2023-06-22T07:59:24;0.20;;;0.20;;
10096;SDS011;5087;42.662;23.466;2023-06-22T08:01:51;0.40;;;0.40;;
10096;SDS011;5087;42.662;23.466;2023-06-22T08:04:18;1.13;;;0.40;;
10096;SDS011;5087;42.662;23.466;2023-06-22T08:06:45;0.30;;;0.30;;
10096;SDS011;5087;42.662;23.466;2023-06-22T08:09:14;0.40;;;0.40;;
10096;SDS011;5087;42.662;23.466;2023-06-22T08:11:41;0.30;;;0.30;;
10096;SDS011;5087;42.662;23.466;2023-06-22T08:14:10;0.30;;;0.30;;
10096;SDS011;5087;42.662;23.466;2023-06-22T08:16:38;0.30;;;0.30;;
10096;SDS011;5087;42.662;23.466;2023-06-22T08:19:05;0.57;;;0.57;;
10096;SDS011;5087;42.662;23.466;2023-06-22T08:21:33;0.37;;;0.37;;
10096;SDS011;5087;42.662;23.466;2023-06-22T08:24:00;0.20;;;0.20;;
10096;SDS011;5087;42.662;23.466;2023-06-22T08:26:27;0.20;;;0.20;;
10096;SDS011;5087;42.662;23.466;2023-06-22T08:28:55;0.20;;;0.20;;
10096;SDS011;5087;42.662;23.466;2023-06-22T08:31:24;0.30;;;0.30;;
10096;SDS011;5087;42.662;23.466;2023-06-22T08:33:52;0.27;;;0.27;;
10096;SDS011;5087;42.662;23.466;2023-06-22T08:36:19;0.20;;;0.20;;
10096;SDS011;5087;42.662;23.466;2023-06-22T08:38:47;0.30;;;0.30;;
10096;SDS011;5087;42.662;23.466;2023-06-22T08:41:16;0.10;;;0.10;;
10096;SDS011;5087;42.662;23.466;2023-06-22T08:43:43;0.20;;;0.20;;
10096;SDS011;5087;42.662;23.466;2023-06-22T08:46:11;0.40;;;0.40;;
10096;SDS011;5087;42.662;23.466;2023-06-22T08:48:39;0.20;;;0.20;;
10096;SDS011;5087;42.662;23.466;2023-06-22T08:51:07;0.20;;;0.20;;
10096;SDS011;5087;42.662;23.466;2023-06-22T08:53:34;0.20;;;0.13;;
10096;SDS011;5087;42.662;23.466;2023-06-22T08:56:02;0.20;;;0.20;;
10096;SDS011;5087;42.662;23.466;2023-06-22T08:58:29;0.20;;;0.20;;
10096;SDS011;5087;42.662;23.466;2023-06-22T09:00:57;0.17;;;0.17;;
10096;SDS011;5087;42.662;23.466;2023-06-22T09:03:28;0.20;;;0.20;;
10096;SDS011;5087;42.662;23.466;2023-06-22T09:05:59;0.30;;;0.30;;
10096;SDS011;5087;42.662;23.466;2023-06-22T09:08:26;0.20;;;0.20;;
10096;SDS011;5087;42.662;23.466;2023-06-22T09:10:54;0.40;;;0.40;;
10096;SDS011;5087;42.662;23.466;2023-06-22T09:13:21;0.20;;;0.20;;
10096;SDS011;5087;42.662;23.466;2023-06-22T09:16:28;0.20;;;0.20;;
10096;SDS011;5087;42.662;23.466;2023-06-22T09:18:55;0.10;;;0.10;;
10096;SDS011;5087;42.662;23.466;2023-06-22T09:21:24;0.20;;;0.20;;
10096;SDS011;5087;42.662;23.466;2023-06-22T09:23:56;0.13;;;0.13;;
10096;SDS011;5087;42.662;23.466;2023-06-22T09:26:24;0.35;;;0.30;;
10096;SDS011;5087;42.662;23.466;2023-06-22T09:28:55;0.40;;;0.40;;
10096;SDS011;5087;42.662;23.466;2023-06-22T09:31:23;0.30;;;0.30;;
10096;SDS011;5087;42.662;23.466;2023-06-22T09:33:54;0.30;;;0.30;;
10096;SDS011;5087;42.662;23.466;2023-06-22T09:36:21;0.10;;;0.10;;
10096;SDS011;5087;42.662;23.466;2023-06-22T09:38:50;0.20;;;0.20;;
10096;SDS011;5087;42.662;23.466;2023-06-22T09:41:21;0.30;;;0.10;;
10096;SDS011;5087;42.662;23.466;2023-06-22T09:43:48;0.10;;;0.10;;
10096;SDS011;5087;42.662;23.466;2023-06-22T09:46:15;0.20;;;0.20;;
10096;SDS011;5087;42.662;23.466;2023-06-22T09:48:43;0.10;;;0.10;;
10096;SDS011;5087;42.662;23.466;2023-06-22T09:51:11;0.10;;;0.10;;
10096;SDS011;5087;42.662;23.466;2023-06-22T09:53:38;0.30;;;0.30;;
10096;SDS011;5087;42.662;23.466;2023-06-22T09:56:07;0.10;;;0.10;;
10096;SDS011;5087;42.662;23.466;2023-06-22T09:58:40;0.52;;;0.47;;
10096;SDS011;5087;42.662;23.466;2023-06-22T10:01:08;0.20;;;0.20;;
10096;SDS011;5087;42.662;23.466;2023-06-22T10:03:35;0.20;;;0.20;;
10096;SDS011;5087;42.662;23.466;2023-06-22T10:06:03;1.03;;;0.93;;
10096;SDS011;5087;42.662;23.466;2023-06-22T10:08:37;0.40;;;0.40;;
10096;SDS011;5087;42.662;23.466;2023-06-22T10:11:08;0.20;;;0.20;;
10096;SDS011;5087;42.662;23.466;2023-06-22T10:13:36;0.22;;;0.22;;
10096;SDS011;5087;42.662;23.466;2023-06-22T10:16:03;0.10;;;0.10;;
10096;SDS011;5087;42.662;23.466;2023-06-22T10:18:32;0.10;;;0.10;;
10096;SDS011;5087;42.662;23.466;2023-06-22T10:20:59;0.20;;;0.20;;
10096;SDS011;5087;42.662;23.466;2023-06-22T10:23:29;0.10;;;0.10;;
10096;SDS011;5087;42.662;23.466;2023-06-22T10:25:56;0.95;;;0.32;;
10096;SDS011;5087;42.662;23.466;2023-06-22T10:28:25;0.10;;;0.10;;
10096;SDS011;5087;42.662;23.466;2023-06-22T10:30:55;0.10;;;0.10;;
10096;SDS011;5087;42.662;23.466;2023-06-22T10:33:22;0.20;;;0.20;;
10096;SDS011;5087;42.662;23.466;2023-06-22T10:35:49;0.10;;;0.10;;
10096;SDS011;5087;42.662;23.466;2023-06-22T10:38:17;0.10;;;0.10;;
10096;SDS011;5087;42.662;23.466;2023-06-22T10:40:46;0.40;;;0.40;;
10096;SDS011;5087;42.662;23.466;2023-06-22T10:43:13;0.10;;;0.10;;
10096;SDS011;5087;42.662;23.466;2023-06-22T10:45:43;0.38;;;0.38;;
10096;SDS011;5087;42.662;23.466;2023-06-22T10:48:10;0.20;;;0.20;;
10096;SDS011;5087;42.662;23.466;2023-06-22T10:50:37;0.20;;;0.20;;
10096;SDS011;5087;42.662;23.466;2023-06-22T10:53:05;0.20;;;0.20;;
10096;SDS011;5087;42.662;23.466;2023-06-22T10:55:32;0.20;;;0.20;;
10096;SDS011;5087;42.662;23.466;2023-06-22T10:57:59;0.30;;;0.30;;
10096;SDS011;5087;42.662;23.466;2023-06-22T11:00:27;0.13;;;0.13;;
10096;SDS011;5087;42.662;23.466;2023-06-22T11:02:55;0.10;;;0.10;;
10096;SDS011;5087;42.662;23.466;2023-06-22T11:05:23;1.08;;;0.22;;
10096;SDS011;5087;42.662;23.466;2023-06-22T11:07:50;0.10;;;0.10;;
10096;SDS011;5087;42.662;23.466;2023-06-22T11:10:17;0.10;;;0.10;;
10096;SDS011;5087;42.662;23.466;2023-06-22T11:12:45;0.10;;;0.10;;
10096;SDS011;5087;42.662;23.466;2023-06-22T11:15:12;0.70;;;0.20;;
10096;SDS011;5087;42.662;23.466;2023-06-22T11:17:40;0.10;;;0.10;;
10096;SDS011;5087;42.662;23.466;2023-06-22T11:20:09;0.10;;;0.10;;
10096;SDS011;5087;42.662;23.466;2023-06-22T11:25:26;0.20;;;0.20;;
10096;SDS011;5087;42.662;23.466;2023-06-22T11:26:36;0.13;;;0.13;;
10096;SDS011;5087;42.662;23.466;2023-06-22T11:32:15;0.15;;;0.15;;
10096;SDS011;5087;42.662;23.466;2023-06-22T11:34:51;0.20;;;0.20;;
10096;SDS011;5087;42.662;23.466;2023-06-22T11:37:25;1.13;;;0.20;;
10096;SDS011;5087;42.662;23.466;2023-06-22T11:39:52;0.30;;;0.30;;
10096;SDS011;5087;42.662;23.466;2023-06-22T11:42:58;0.20;;;0.20;;
10096;SDS011;5087;42.662;23.466;2023-06-22T11:45:26;0.20;;;0.20;;
10096;SDS011;5087;42.662;23.466;2023-06-22T11:47:54;0.22;;;0.22;;
10096;SDS011;5087;42.662;23.466;2023-06-22T11:50:21;0.20;;;0.20;;
10096;SDS011;5087;42.662;23.466;2023-06-22T11:52:50;0.13;;;0.13;;
10096;SDS011;5087;42.662;23.466;2023-06-22T11:55:18;0.20;;;0.20;;
10096;SDS011;5087;42.662;23.466;2023-06-22T11:57:52;0.10;;;0.10;;
10096;SDS011;5087;42.662;23.466;2023-06-22T12:00:22;0.70;;;0.70;;
10096;SDS011;5087;42.662;23.466;2023-06-22T12:02:50;2.80;;;2.80;;
10096;SDS011;5087;42.662;23.466;2023-06-22T12:05:18;2.93;;;2.93;;
10096;SDS011;5087;42.662;23.466;2023-06-22T12:07:47;2.10;;;2.10;;
10096;SDS011;5087;42.662;23.466;2023-06-22T12:10:17;1.30;;;1.30;;
10096;SDS011;5087;42.662;23.466;2023-06-22T12:12:44;1.00;;;1.00;;
10096;SDS011;5087;42.662;23.466;2023-06-22T12:15:12;1.57;;;1.57;;
10096;SDS011;5087;42.662;23.466;2023-06-22T12:17:39;1.90;;;1.90;;
10096;SDS011;5087;42.662;23.466;2023-06-22T12:20:07;2.63;;;2.63;;
10096;SDS011;5087;42.662;23.466;2023-06-22T12:22:35;1.90;;;1.90;;
10096;SDS011;5087;42.662;23.466;2023-06-22T12:25:04;1.70;;;1.70;;
10096;SDS011;5087;42.662;23.466;2023-06-22T12:27:33;1.70;;;1.70;;
10096;SDS011;5087;42.662;23.466;2023-06-22T12:30:01;1.93;;;1.93;;
10096;SDS011;5087;42.662;23.466;2023-06-22T12:32:28;2.30;;;2.20;;
10096;SDS011;5087;42.662;23.466;2023-06-22T12:34:55;1.70;;;1.70;;
10096;SDS011;5087;42.662;23.466;2023-06-22T12:37:27;2.13;;;2.13;;
10096;SDS011;5087;42.662;23.466;2023-06-22T12:39:55;2.30;;;2.30;;
10096;SDS011;5087;42.662;23.466;2023-06-22T12:42:22;1.80;;;1.80;;
10096;SDS011;5087;42.662;23.466;2023-06-22T12:44:50;1.50;;;1.50;;
10096;SDS011;5087;42.662;23.466;2023-06-22T12:47:18;1.67;;;1.67;;
10096;SDS011;5087;42.662;23.466;2023-06-22T12:49:45;1.60;;;1.60;;
10096;SDS011;5087;42.662;23.466;2023-06-22T12:52:13;1.40;;;1.40;;
10096;SDS011;5087;42.662;23.466;2023-06-22T12:54:40;1.70;;;1.70;;
10096;SDS011;5087;42.662;23.466;2023-06-22T12:57:08;1.50;;;1.50;;
10096;SDS011;5087;42.662;23.466;2023-06-22T12:59:35;1.50;;;1.50;;
10096;SDS011;5087;42.662;23.466;2023-06-22T13:02:04;1.10;;;1.10;;
10096;SDS011;5087;42.662;23.466;2023-06-22T13:04:38;0.90;;;0.90;;
10096;SDS011;5087;42.662;23.466;2023-06-22T13:07:09;1.27;;;1.17;;
10096;SDS011;5087;42.662;23.466;2023-06-22T13:09:36;1.27;;;1.27;;
10096;SDS011;5087;42.662;23.466;2023-06-22T13:12:06;2.20;;;2.20;;
10096;SDS011;5087;42.662;23.466;2023-06-22T13:14:37;2.00;;;2.00;;
10096;SDS011;5087;42.662;23.466;2023-06-22T13:17:06;2.17;;;2.17;;
10096;SDS011;5087;42.662;23.466;2023-06-22T13:19:33;1.60;;;1.60;;
10096;SDS011;5087;42.662;23.466;2023-06-22T13:26:21;0.80;;;0.80;;
10096;SDS011;5087;42.662;23.466;2023-06-22T13:28:58;0.80;;;0.80;;
10096;SDS011;5087;42.662;23.466;2023-06-22T13:31:39;0.70;;;0.70;;
10096;SDS011;5087;42.662;23.466;2023-06-22T13:34:07;0.40;;;0.40;;
10096;SDS011;5087;42.662;23.466;2023-06-22T13:36:35;0.20;;;0.20;;
10096;SDS011;5087;42.662;23.466;2023-06-22T13:39:02;0.10;;;0.10;;
10096;SDS011;5087;42.662;23.466;2023-06-22T13:41:30;0.10;;;0.10;;
10096;SDS011;5087;42.662;23.466;2023-06-22T13:43:57;0.00;;;0.00;;
10096;SDS011;5087;42.662;23.466;2023-06-22T13:46:24;0.03;;;0.03;;
10096;SDS011;5087;42.662;23.466;2023-06-22T13:48:53;0.00;;;0.00;;
10096;SDS011;5087;42.662;23.466;2023-06-22T13:51:22;0.00;;;0.00;;
10096;SDS011;5087;42.662;23.466;2023-06-22T13:53:49;0.30;;;0.30;;
10096;SDS011;5087;42.662;23.466;2023-06-22T13:56:16;0.00;;;0.00;;
10096;SDS011;5087;42.662;23.466;2023-06-22T13:58:44;0.40;;;0.10;;
10096;SDS011;5087;42.662;23.466;2023-06-22T14:01:14;0.00;;;0.00;;
10096;SDS011;5087;42.662;23.466;2023-06-22T14:03:41;1.90;;;0.17;;
10096;SDS011;5087;42.662;23.466;2023-06-22T14:06:11;0.00;;;0.00;;
10096;SDS011;5087;42.662;23.466;2023-06-22T14:08:39;0.00;;;0.00;;
10096;SDS011;5087;42.662;23.466;2023-06-22T14:11:07;0.00;;;0.00;;
10096;SDS011;5087;42.662;23.466;2023-06-22T14:13:35;0.00;;;0.00;;
10096;SDS011;5087;42.662;23.466;2023-06-22T14:16:02;0.00;;;0.00;;
10096;SDS011;5087;42.662;23.466;2023-06-22T14:18:31;0.10;;;0.10;;
10096;SDS011;5087;42.662;23.466;2023-06-22T14:21:02;0.00;;;0.00;;
10096;SDS011;5087;42.662;23.466;2023-06-22T14:23:30;0.00;;;0.00;;
10096;SDS011;5087;42.662;23.466;2023-06-22T14:25:58;0.30;;;0.30;;
10096;SDS011;5087;42.662;23.466;2023-06-22T14:28:28;0.10;;;0.10;;
10096;SDS011;5087;42.662;23.466;2023-06-22T14:30:56;0.00;;;0.00;;
10096;SDS011;5087;42.662;23.466;2023-06-22T14:33:24;0.13;;;0.13;;
10096;SDS011;5087;42.662;23.466;2023-06-22T14:35:51;0.00;;;0.00;;
10096;SDS011;5087;42.662;23.466;2023-06-22T14:38:19;0.00;;;0.00;;
10096;SDS011;5087;42.662;23.466;2023-06-22T14:40:47;0.00;;;0.00;;
10096;SDS011;5087;42.662;23.466;2023-06-22T14:43:16;0.10;;;0.10;;
10096;SDS011;5087;42.662;23.466;2023-06-22T14:45:45;0.00;;;0.00;;
10096;SDS011;5087;42.662;23.466;2023-06-22T14:48:12;0.17;;;0.17;;
10096;SDS011;5087;42.662;23.466;2023-06-22T14:50:40;1.07;;;0.50;;
10096;SDS011;5087;42.662;23.466;2023-06-22T14:56:47;0.10;;;0.10;;
10096;SDS011;5087;42.662;23.466;2023-06-22T14:59:16;0.30;;;0.30;;
10096;SDS011;5087;42.662;23.466;2023-06-22T15:01:44;0.47;;;0.40;;
10096;SDS011;5087;42.662;23.466;2023-06-22T15:04:11;0.40;;;0.40;;
10096;SDS011;5087;42.662;23.466;2023-06-22T15:06:39;2.30;;;0.60;;
10096;SDS011;5087;42.662;23.466;2023-06-22T15:09:06;0.60;;;0.60;;
10096;SDS011;5087;42.662;23.466;2023-06-22T15:11:33;0.50;;;0.50;;
10096;SDS011;5087;42.662;23.466;2023-06-22T15:14:01;0.27;;;0.27;;